createdAt,value
2023-01-29T00:00:26.588Z,0.44
2023-01-29T00:01:26.544Z,0.44
2023-01-29T00:02:26.601Z,0.42
2023-01-29T00:03:26.746Z,0.40
2023-01-29T00:04:26.740Z,0.39
2023-01-29T00:05:28.360Z,0.37
2023-01-29T00:06:26.662Z,0.36
2023-01-29T00:07:26.460Z,0.39
2023-01-29T00:08:26.624Z,0.37
2023-01-29T00:09:26.491Z,0.42
2023-01-29T00:10:26.526Z,0.42
2023-01-29T00:11:26.453Z,0.42
2023-01-29T00:12:26.647Z,0.42
2023-01-29T00:13:26.476Z,0.40
2023-01-29T00:14:26.657Z,0.40
2023-01-29T00:15:26.529Z,0.39
2023-01-29T00:16:26.406Z,0.40
2023-01-29T00:17:26.316Z,0.40
2023-01-29T00:18:26.321Z,0.42
2023-01-29T00:19:26.293Z,0.40
2023-01-29T00:20:26.298Z,0.37
2023-01-29T00:21:26.310Z,0.37
2023-01-29T00:22:26.362Z,0.34
2023-01-29T00:23:26.269Z,0.36
2023-01-29T00:24:26.374Z,0.33
2023-01-29T00:25:26.711Z,0.34
2023-01-29T00:26:26.344Z,0.37
2023-01-29T00:27:26.486Z,0.37
2023-01-29T00:28:26.234Z,0.34
2023-01-29T00:29:26.152Z,0.37
2023-01-29T00:30:26.258Z,0.37
2023-01-29T00:31:26.273Z,0.40
2023-01-29T00:32:26.727Z,0.40
2023-01-29T00:33:27.397Z,0.39
2023-01-29T00:34:26.327Z,0.42
2023-01-29T00:35:26.096Z,0.39
2023-01-29T00:36:26.337Z,0.36
2023-01-29T00:37:26.138Z,0.34
2023-01-29T00:38:26.060Z,0.33
2023-01-29T00:39:31.451Z,0.33
2023-01-29T00:40:26.168Z,0.34
2023-01-29T00:41:26.181Z,0.34
2023-01-29T00:42:26.012Z,0.34
2023-01-29T00:43:26.022Z,0.36
2023-01-29T00:44:26.074Z,0.36
2023-01-29T00:45:26.941Z,0.36
2023-01-29T00:46:26.031Z,0.33
2023-01-29T00:47:25.961Z,0.33
2023-01-29T00:48:26.003Z,0.31
2023-01-29T00:49:25.957Z,0.34
2023-01-29T00:50:26.087Z,0.34
2023-01-29T00:51:26.170Z,0.33
2023-01-29T00:52:26.001Z,0.34
2023-01-29T00:53:25.879Z,0.34
2023-01-29T00:54:25.986Z,0.33
2023-01-29T00:55:26.168Z,0.33
2023-01-29T00:56:25.827Z,0.31
2023-01-29T00:57:25.858Z,0.31
2023-01-29T00:58:25.788Z,0.34
2023-01-29T00:59:25.874Z,0.33
2023-01-29T01:00:25.836Z,0.34
2023-01-29T01:01:25.776Z,0.36
2023-01-29T01:02:25.839Z,0.34
2023-01-29T01:03:25.747Z,0.31
2023-01-29T01:04:25.765Z,0.33
2023-01-29T01:05:25.852Z,0.33
2023-01-29T01:06:25.763Z,0.31
2023-01-29T01:07:25.842Z,0.27
2023-01-29T01:08:25.745Z,0.29
2023-01-29T01:09:25.856Z,0.29
2023-01-29T01:10:25.701Z,0.27
2023-01-29T01:11:25.859Z,0.26
2023-01-29T01:12:25.748Z,0.24
2023-01-29T01:13:25.623Z,0.24
2023-01-29T01:14:25.658Z,0.23
2023-01-29T01:15:25.626Z,0.23
2023-01-29T01:16:25.721Z,0.23
2023-01-29T01:17:25.647Z,0.23
2023-01-29T01:18:25.702Z,0.23
2023-01-29T01:19:25.549Z,0.23
2023-01-29T01:20:25.675Z,0.23
2023-01-29T01:21:25.529Z,0.23
2023-01-29T01:22:25.662Z,0.26
2023-01-29T01:23:25.585Z,0.23
2023-01-29T01:24:25.704Z,0.27
2023-01-29T01:25:25.512Z,0.27
2023-01-29T01:26:25.693Z,0.27
2023-01-29T01:27:25.523Z,0.27
2023-01-29T01:28:26.011Z,0.27
2023-01-29T01:29:25.554Z,0.26
2023-01-29T01:30:25.392Z,0.29
2023-01-29T01:31:25.492Z,0.26
2023-01-29T01:32:25.395Z,0.27
2023-01-29T01:33:25.369Z,0.27
2023-01-29T01:34:25.429Z,0.20
2023-01-29T01:35:25.380Z,0.16
2023-01-29T01:36:25.347Z,0.15
2023-01-29T01:37:25.518Z,0.13
2023-01-29T01:38:25.371Z,0.15
2023-01-29T01:39:25.636Z,0.15
2023-01-29T01:40:25.353Z,0.16
2023-01-29T01:41:25.264Z,0.15
2023-01-29T01:42:25.244Z,0.13
2023-01-29T01:43:25.232Z,0.13
2023-01-29T01:44:25.235Z,0.15
2023-01-29T01:45:25.283Z,0.15
2023-01-29T01:46:25.192Z,0.16
2023-01-29T01:47:25.211Z,0.15
2023-01-29T01:48:25.359Z,0.15
2023-01-29T01:49:25.209Z,0.18
2023-01-29T01:50:25.368Z,0.19
2023-01-29T01:51:25.212Z,0.20
2023-01-29T01:52:25.100Z,0.13
2023-01-29T01:53:25.232Z,0.11
2023-01-29T01:54:25.131Z,0.11
2023-01-29T01:55:25.209Z,0.09
2023-01-29T01:56:25.368Z,0.09
2023-01-29T01:57:25.106Z,0.06
2023-01-29T01:58:25.088Z,0.05
2023-01-29T01:59:25.054Z,0.02
2023-01-29T02:00:25.024Z,0.06
2023-01-29T02:01:25.888Z,0.02
2023-01-29T02:02:25.104Z,0.01
2023-01-29T02:03:24.944Z,-0.05
2023-01-29T02:04:24.963Z,-0.02
2023-01-29T02:05:25.179Z,-0.03
2023-01-29T02:06:25.133Z,-0.03
2023-01-29T02:07:24.920Z,-0.05
2023-01-29T02:08:24.961Z,-0.06
2023-01-29T02:09:24.906Z,-0.05
2023-01-29T02:10:25.047Z,-0.06
2023-01-29T02:11:24.936Z,-0.06
2023-01-29T02:12:24.938Z,-0.05
2023-01-29T02:13:24.870Z,-0.03
2023-01-29T02:14:25.049Z,-0.02
2023-01-29T02:15:24.878Z,0.00
2023-01-29T02:16:25.058Z,0.00
2023-01-29T02:17:24.966Z,0.02
2023-01-29T02:18:24.775Z,0.06
2023-01-29T02:19:24.895Z,0.06
2023-01-29T02:20:24.757Z,0.02
2023-01-29T02:21:24.919Z,0.01
2023-01-29T02:22:24.723Z,0.01
2023-01-29T02:23:25.204Z,0.01
2023-01-29T02:24:24.737Z,0.01
2023-01-29T02:25:24.882Z,-0.02
2023-01-29T02:26:24.756Z,-0.05
2023-01-29T02:27:24.678Z,-0.05
2023-01-29T02:28:24.793Z,-0.02
2023-01-29T02:29:24.638Z,-0.02
2023-01-29T02:30:24.707Z,0.01
2023-01-29T02:31:24.641Z,0.02
2023-01-29T02:32:24.728Z,0.02
2023-01-29T02:33:24.590Z,0.01
2023-01-29T02:34:24.767Z,0.01
2023-01-29T02:35:24.575Z,0.01
2023-01-29T02:36:24.526Z,0.00
2023-01-29T02:37:24.585Z,-0.02
2023-01-29T02:38:24.739Z,0.00
2023-01-29T02:39:24.572Z,0.00
2023-01-29T02:40:24.479Z,0.01
2023-01-29T02:41:24.573Z,0.00
2023-01-29T02:42:24.748Z,0.05
2023-01-29T02:43:24.590Z,0.01
2023-01-29T02:44:24.455Z,0.00
2023-01-29T02:45:24.641Z,-0.02
2023-01-29T02:46:24.441Z,-0.05
2023-01-29T02:47:24.567Z,-0.03
2023-01-29T02:48:24.411Z,-0.05
2023-01-29T02:49:24.567Z,-0.02
2023-01-29T02:50:24.758Z,-0.05
2023-01-29T02:51:24.355Z,-0.02
2023-01-29T02:52:24.407Z,-0.02
2023-01-29T02:53:24.320Z,0.01
2023-01-29T02:54:24.299Z,0.01
2023-01-29T02:55:24.288Z,0.02
2023-01-29T02:56:24.475Z,0.01
2023-01-29T02:57:24.588Z,0.08
2023-01-29T02:58:24.393Z,0.06
2023-01-29T02:59:24.277Z,0.08
2023-01-29T03:00:24.428Z,0.08
2023-01-29T03:01:24.315Z,0.09
2023-01-29T03:02:24.306Z,0.06
2023-01-29T03:03:24.172Z,0.06
2023-01-29T03:04:24.194Z,0.08
2023-01-29T03:05:24.221Z,0.09
2023-01-29T03:06:24.377Z,0.08
2023-01-29T03:07:24.297Z,0.09
2023-01-29T03:08:24.387Z,0.06
2023-01-29T03:09:24.263Z,0.08
2023-01-29T03:10:24.121Z,0.05
2023-01-29T03:11:24.120Z,0.06
2023-01-29T03:12:24.167Z,0.08
2023-01-29T03:13:24.067Z,0.02
2023-01-29T03:14:24.077Z,0.05
2023-01-29T03:15:24.056Z,0.08
2023-01-29T03:16:24.083Z,0.06
2023-01-29T03:17:24.280Z,0.02
2023-01-29T03:18:24.171Z,0.02
2023-01-29T03:19:24.262Z,0.01
2023-01-29T03:20:23.982Z,0.01
2023-01-29T03:21:23.982Z,0.05
2023-01-29T03:22:24.104Z,0.06
2023-01-29T03:23:24.254Z,0.02
2023-01-29T03:24:24.200Z,0.06
2023-01-29T03:25:23.892Z,0.05
2023-01-29T03:26:23.887Z,0.05
2023-01-29T03:27:23.911Z,0.06
2023-01-29T03:28:23.879Z,0.02
2023-01-29T03:29:24.006Z,0.02
2023-01-29T03:30:24.087Z,0.05
2023-01-29T03:31:23.956Z,0.05
2023-01-29T03:32:23.868Z,0.06
2023-01-29T03:33:23.920Z,0.08
2023-01-29T03:34:24.232Z,0.08
2023-01-29T03:35:23.927Z,0.05
2023-01-29T03:36:23.758Z,0.05
2023-01-29T03:37:23.916Z,0.05
2023-01-29T03:38:23.783Z,0.05
2023-01-29T03:39:23.924Z,0.06
2023-01-29T03:40:23.822Z,0.06
2023-01-29T03:41:23.931Z,0.00
2023-01-29T03:42:23.828Z,-0.03
2023-01-29T03:43:23.695Z,-0.06
2023-01-29T03:44:23.651Z,-0.02
2023-01-29T03:45:23.993Z,0.00
2023-01-29T03:46:23.764Z,0.01
2023-01-29T03:47:23.631Z,0.02
2023-01-29T03:48:23.777Z,0.02
2023-01-29T03:49:23.606Z,0.05
2023-01-29T03:50:23.616Z,0.08
2023-01-29T03:51:23.667Z,0.06
2023-01-29T03:52:23.546Z,0.06
2023-01-29T03:53:23.607Z,0.08
2023-01-29T03:54:23.756Z,0.08
2023-01-29T03:55:23.531Z,0.06
2023-01-29T03:56:23.552Z,0.02
2023-01-29T03:57:23.625Z,0.02
2023-01-29T03:58:23.495Z,0.01
2023-01-29T03:59:23.593Z,0.02
2023-01-29T04:00:23.794Z,0.05
2023-01-29T04:01:23.642Z,0.05
2023-01-29T04:02:23.480Z,0.02
2023-01-29T04:03:23.471Z,0.00
2023-01-29T04:04:23.508Z,0.02
2023-01-29T04:05:23.607Z,0.01
2023-01-29T04:06:23.463Z,0.02
2023-01-29T04:07:23.434Z,0.02
2023-01-29T04:08:23.440Z,0.02
2023-01-29T04:09:23.619Z,0.02
2023-01-29T04:10:23.445Z,0.05
2023-01-29T04:11:23.320Z,0.02
2023-01-29T04:12:23.438Z,0.02
2023-01-29T04:13:23.597Z,0.02
2023-01-29T04:14:23.415Z,0.05
2023-01-29T04:15:23.267Z,0.06
2023-01-29T04:16:23.474Z,0.06
2023-01-29T04:17:23.249Z,0.06
2023-01-29T04:18:23.547Z,0.06
2023-01-29T04:19:23.292Z,0.06
2023-01-29T04:20:23.493Z,0.08
2023-01-29T04:21:23.302Z,0.02
2023-01-29T04:22:23.446Z,0.02
2023-01-29T04:23:23.283Z,0.02
2023-01-29T04:24:23.465Z,0.06
2023-01-29T04:25:23.145Z,0.08
2023-01-29T04:26:23.123Z,0.06
2023-01-29T04:27:23.271Z,0.08
2023-01-29T04:28:23.123Z,0.08
2023-01-29T04:29:23.344Z,0.08
2023-01-29T04:30:23.137Z,0.09
2023-01-29T04:31:23.455Z,0.11
2023-01-29T04:32:23.136Z,0.12
2023-01-29T04:33:23.290Z,0.13
2023-01-29T04:34:23.137Z,0.12
2023-01-29T04:35:23.086Z,0.12
2023-01-29T04:36:23.136Z,0.12
2023-01-29T04:37:22.970Z,0.12
2023-01-29T04:38:23.097Z,0.11
2023-01-29T04:39:22.985Z,0.12
2023-01-29T04:40:23.190Z,0.09
2023-01-29T04:41:22.961Z,0.11
2023-01-29T04:42:22.962Z,0.11
2023-01-29T04:43:22.952Z,0.11
2023-01-29T04:44:22.887Z,0.11
2023-01-29T04:45:22.955Z,0.13
2023-01-29T04:46:22.950Z,0.12
2023-01-29T04:47:22.957Z,0.13
2023-01-29T04:48:23.124Z,0.13
2023-01-29T04:49:22.974Z,0.13
2023-01-29T04:50:23.131Z,0.11
2023-01-29T04:51:22.975Z,0.13
2023-01-29T04:52:22.797Z,0.12
2023-01-29T04:53:22.761Z,0.13
2023-01-29T04:54:22.764Z,0.13
2023-01-29T04:55:22.739Z,0.13
2023-01-29T04:56:22.736Z,0.12
2023-01-29T04:57:22.787Z,0.13
2023-01-29T04:58:22.767Z,0.12
2023-01-29T04:59:22.716Z,0.12
2023-01-29T05:00:22.798Z,0.13
2023-01-29T05:01:22.736Z,0.13
2023-01-29T05:02:22.771Z,0.15
2023-01-29T05:03:22.695Z,0.13
2023-01-29T05:04:22.662Z,0.12
2023-01-29T05:05:22.641Z,0.15
2023-01-29T05:06:22.625Z,0.13
2023-01-29T05:07:22.639Z,0.12
2023-01-29T05:08:22.633Z,0.11
2023-01-29T05:09:22.631Z,0.09
2023-01-29T05:10:22.535Z,0.11
2023-01-29T05:11:22.655Z,0.12
2023-01-29T05:12:22.530Z,0.11
2023-01-29T05:13:22.702Z,0.11
2023-01-29T05:14:22.788Z,0.12
2023-01-29T05:15:22.657Z,0.12
2023-01-29T05:16:22.551Z,0.15
2023-01-29T05:17:22.497Z,0.15
2023-01-29T05:18:22.497Z,0.18
2023-01-29T05:19:22.675Z,0.18
2023-01-29T05:20:22.439Z,0.19
2023-01-29T05:21:22.405Z,0.20
2023-01-29T05:22:22.387Z,0.19
2023-01-29T05:23:22.417Z,0.23
2023-01-29T05:24:22.480Z,0.23
2023-01-29T05:25:22.339Z,0.24
2023-01-29T05:26:22.359Z,0.27
2023-01-29T05:27:22.325Z,0.26
2023-01-29T05:28:22.316Z,0.27
2023-01-29T05:29:22.303Z,0.26
2023-01-29T05:30:22.564Z,0.26
2023-01-29T05:31:22.392Z,0.26
2023-01-29T05:32:22.268Z,0.23
2023-01-29T05:33:22.355Z,0.24
2023-01-29T05:34:22.245Z,0.24
2023-01-29T05:35:22.397Z,0.24
2023-01-29T05:36:22.274Z,0.26
2023-01-29T05:37:22.197Z,0.23
2023-01-29T05:38:22.191Z,0.24
2023-01-29T05:39:22.314Z,0.24
2023-01-29T05:40:22.189Z,0.26
2023-01-29T05:41:22.228Z,0.24
2023-01-29T05:42:22.145Z,0.23
2023-01-29T05:43:22.151Z,0.23
2023-01-29T05:44:22.111Z,0.24
2023-01-29T05:45:22.321Z,0.23
2023-01-29T05:46:22.144Z,0.26
2023-01-29T05:47:22.105Z,0.23
2023-01-29T05:48:22.165Z,0.24
2023-01-29T05:49:22.041Z,0.24
2023-01-29T05:50:22.161Z,0.24
2023-01-29T05:51:22.297Z,0.29
2023-01-29T05:52:22.110Z,0.27
2023-01-29T05:53:22.011Z,0.30
2023-01-29T05:54:22.015Z,0.31
2023-01-29T05:55:21.968Z,0.33
2023-01-29T05:56:21.937Z,0.33
2023-01-29T05:57:22.052Z,0.33
2023-01-29T05:58:21.956Z,0.34
2023-01-29T05:59:21.906Z,0.34
2023-01-29T06:00:21.889Z,0.31
2023-01-29T06:01:21.917Z,0.34
2023-01-29T06:02:21.882Z,0.33
2023-01-29T06:03:21.953Z,0.34
2023-01-29T06:04:21.890Z,0.34
2023-01-29T06:05:22.012Z,0.34
2023-01-29T06:06:21.841Z,0.36
2023-01-29T06:07:21.842Z,0.36
2023-01-29T06:08:21.872Z,0.36
2023-01-29T06:09:21.850Z,0.36
2023-01-29T06:10:21.862Z,0.36
2023-01-29T06:11:22.012Z,0.37
2023-01-29T06:12:21.794Z,0.36
2023-01-29T06:13:23.625Z,0.37
2023-01-29T06:14:21.843Z,0.36
2023-01-29T06:15:21.744Z,0.33
2023-01-29T06:16:21.787Z,0.33
2023-01-29T06:17:21.696Z,0.33
2023-01-29T06:18:21.838Z,0.33
2023-01-29T06:19:21.770Z,0.31
2023-01-29T06:20:21.847Z,0.31
2023-01-29T06:21:21.737Z,0.31
2023-01-29T06:22:22.418Z,0.33
2023-01-29T06:23:21.692Z,0.31
2023-01-29T06:24:21.783Z,0.31
2023-01-29T06:25:22.012Z,0.31
2023-01-29T06:26:21.598Z,0.33
2023-01-29T06:27:21.696Z,0.34
2023-01-29T06:28:21.562Z,0.33
2023-01-29T06:29:21.553Z,0.33
2023-01-29T06:30:21.641Z,0.31
2023-01-29T06:31:37.414Z,0.31
2023-01-29T06:32:21.597Z,0.31
2023-01-29T06:33:21.486Z,0.30
2023-01-29T06:34:21.539Z,0.30
2023-01-29T06:35:21.465Z,0.31
2023-01-29T06:36:21.597Z,0.30
2023-01-29T06:37:21.460Z,0.30
2023-01-29T06:38:21.436Z,0.29
2023-01-29T06:39:21.687Z,0.30
2023-01-29T06:40:21.396Z,0.29
2023-01-29T06:41:21.484Z,0.29
2023-01-29T06:42:21.410Z,0.30
2023-01-29T06:43:21.354Z,0.30
2023-01-29T06:44:21.352Z,0.30
2023-01-29T06:45:21.410Z,0.31
2023-01-29T06:46:21.312Z,0.31
2023-01-29T06:47:21.346Z,0.31
2023-01-29T06:48:21.291Z,0.30
2023-01-29T06:49:21.357Z,0.31
2023-01-29T06:50:21.543Z,0.30
2023-01-29T06:51:21.362Z,0.29
2023-01-29T06:52:21.509Z,0.27
2023-01-29T06:53:21.286Z,0.29
2023-01-29T06:54:21.220Z,0.27
2023-01-29T06:55:21.240Z,0.29
2023-01-29T06:56:21.207Z,0.29
2023-01-29T06:57:21.156Z,0.29
2023-01-29T06:58:21.253Z,0.29
2023-01-29T06:59:21.153Z,0.29
2023-01-29T07:00:21.137Z,0.30
2023-01-29T07:01:36.936Z,0.33
2023-01-29T07:02:21.159Z,0.31
2023-01-29T07:03:21.151Z,0.33
2023-01-29T07:04:21.197Z,0.31
2023-01-29T07:05:21.382Z,0.31
2023-01-29T07:06:21.186Z,0.31
2023-01-29T07:07:21.053Z,0.33
2023-01-29T07:08:21.092Z,0.36
2023-01-29T07:09:21.140Z,0.34
2023-01-29T07:10:21.028Z,0.37
2023-01-29T07:11:21.075Z,0.37
2023-01-29T07:12:21.039Z,0.37
2023-01-29T07:13:21.058Z,0.37
2023-01-29T07:14:21.299Z,0.36
2023-01-29T07:15:21.037Z,0.34
2023-01-29T07:16:21.030Z,0.37
2023-01-29T07:17:21.076Z,0.39
2023-01-29T07:18:20.919Z,0.39
2023-01-29T07:19:20.915Z,0.37
2023-01-29T07:20:21.015Z,0.39
2023-01-29T07:21:21.058Z,0.42
2023-01-29T07:22:20.884Z,0.39
2023-01-29T07:23:21.129Z,0.39
2023-01-29T07:24:21.005Z,0.39
2023-01-29T07:25:21.361Z,0.40
2023-01-29T07:26:20.883Z,0.42
2023-01-29T07:27:20.816Z,0.42
2023-01-29T07:28:20.789Z,0.40
2023-01-29T07:29:20.856Z,0.42
2023-01-29T07:30:20.800Z,0.42
2023-01-29T07:31:20.949Z,0.45
2023-01-29T07:32:20.915Z,0.44
2023-01-29T07:33:20.746Z,0.45
2023-01-29T07:34:20.857Z,0.47
2023-01-29T07:35:20.680Z,0.47
2023-01-29T07:36:20.977Z,0.47
2023-01-29T07:37:20.694Z,0.48
2023-01-29T07:38:20.888Z,0.45
2023-01-29T07:39:20.705Z,0.47
2023-01-29T07:40:20.637Z,0.47
2023-01-29T07:41:20.761Z,0.48
2023-01-29T07:42:20.952Z,0.47
2023-01-29T07:43:20.584Z,0.47
2023-01-29T07:44:20.653Z,0.48
2023-01-29T07:45:20.703Z,0.49
2023-01-29T07:46:20.531Z,0.51
2023-01-29T07:47:20.638Z,0.52
2023-01-29T07:48:20.589Z,0.56
2023-01-29T07:49:20.697Z,0.55
2023-01-29T07:50:20.598Z,0.55
2023-01-29T07:51:20.457Z,0.55
2023-01-29T07:52:22.336Z,0.55
2023-01-29T07:53:20.547Z,0.52
2023-01-29T07:54:20.568Z,0.55
2023-01-29T07:55:20.444Z,0.56
2023-01-29T07:56:20.438Z,0.58
2023-01-29T07:57:20.410Z,0.59
2023-01-29T07:58:20.561Z,0.56
2023-01-29T07:59:20.363Z,0.56
2023-01-29T08:00:20.361Z,0.56
2023-01-29T08:01:20.450Z,0.56
2023-01-29T08:02:20.585Z,0.56
2023-01-29T08:03:20.328Z,0.59
2023-01-29T08:04:20.611Z,0.58
2023-01-29T08:05:20.324Z,0.58
2023-01-29T08:06:20.304Z,0.63
2023-01-29T08:07:20.389Z,0.63
2023-01-29T08:08:20.616Z,0.66
2023-01-29T08:09:20.396Z,0.68
2023-01-29T08:10:20.445Z,0.68
2023-01-29T08:11:20.237Z,0.66
2023-01-29T08:12:20.253Z,0.68
2023-01-29T08:13:20.206Z,0.71
2023-01-29T08:14:20.226Z,0.70
2023-01-29T08:15:20.481Z,0.74
2023-01-29T08:16:20.353Z,0.73
2023-01-29T08:17:20.152Z,0.77
2023-01-29T08:18:20.272Z,0.81
2023-01-29T08:19:20.399Z,0.81
2023-01-29T08:20:20.426Z,0.86
2023-01-29T08:21:20.152Z,0.86
2023-01-29T08:22:20.232Z,0.91
2023-01-29T08:23:20.175Z,0.94
2023-01-29T08:24:20.175Z,0.94
2023-01-29T08:25:20.116Z,0.95
2023-01-29T08:26:20.266Z,0.94
2023-01-29T08:27:20.077Z,0.92
2023-01-29T08:28:19.997Z,0.92
2023-01-29T08:29:20.008Z,0.94
2023-01-29T08:30:19.978Z,0.95
2023-01-29T08:31:19.946Z,0.96
2023-01-29T08:32:20.010Z,1.00
2023-01-29T08:33:29.774Z,1.03
2023-01-29T08:34:19.912Z,0.96
2023-01-29T08:35:20.650Z,0.99
2023-01-29T08:36:19.934Z,0.99
2023-01-29T08:37:20.102Z,0.95
2023-01-29T08:38:19.941Z,0.95
2023-01-29T08:39:19.921Z,0.92
2023-01-29T08:40:20.199Z,0.91
2023-01-29T08:41:20.094Z,0.91
2023-01-29T08:42:19.922Z,0.91
2023-01-29T08:43:20.086Z,0.91
2023-01-29T08:44:19.940Z,0.88
2023-01-29T08:45:19.865Z,0.89
2023-01-29T08:46:20.023Z,0.91
2023-01-29T08:47:19.765Z,0.92
2023-01-29T08:48:19.748Z,0.89
2023-01-29T08:49:19.766Z,0.85
2023-01-29T08:50:19.921Z,0.85
2023-01-29T08:51:19.877Z,0.86
2023-01-29T08:52:19.674Z,0.89
2023-01-29T08:53:19.775Z,0.91
2023-01-29T08:54:19.663Z,0.92
2023-01-29T08:55:19.782Z,0.92
2023-01-29T08:56:19.682Z,0.92
2023-01-29T08:57:19.695Z,0.91
2023-01-29T08:58:19.571Z,0.89
2023-01-29T08:59:19.644Z,0.91
2023-01-29T09:00:19.597Z,0.89
2023-01-29T09:01:19.635Z,0.88
2023-01-29T09:02:19.703Z,0.88
2023-01-29T09:03:19.615Z,0.89
2023-01-29T09:04:19.590Z,0.91
2023-01-29T09:05:20.227Z,0.91
2023-01-29T09:06:19.600Z,0.94
2023-01-29T09:07:19.497Z,0.94
2023-01-29T09:08:19.578Z,0.94
2023-01-29T09:09:19.544Z,0.95
2023-01-29T09:10:19.597Z,0.99
2023-01-29T09:11:19.475Z,1.02
2023-01-29T09:12:19.596Z,1.02
2023-01-29T09:13:19.382Z,1.04
2023-01-29T09:14:19.632Z,1.07
2023-01-29T09:15:19.754Z,1.12
2023-01-29T09:16:19.626Z,1.14
2023-01-29T09:17:19.429Z,1.20
2023-01-29T09:18:19.336Z,1.21
2023-01-29T09:19:19.446Z,1.18
2023-01-29T09:20:19.402Z,1.25
2023-01-29T09:21:19.427Z,1.27
2023-01-29T09:22:19.307Z,1.25
2023-01-29T09:23:19.426Z,1.27
2023-01-29T09:24:19.297Z,1.28
2023-01-29T09:25:19.731Z,1.31
2023-01-29T09:26:19.337Z,1.36
2023-01-29T09:27:19.445Z,1.39
2023-01-29T09:28:19.283Z,1.40
2023-01-29T09:29:19.264Z,1.38
2023-01-29T09:30:19.199Z,1.36
2023-01-29T09:31:19.316Z,1.42
2023-01-29T09:32:37.730Z,1.43
2023-01-29T09:33:19.451Z,1.36
2023-01-29T09:34:19.272Z,1.36
2023-01-29T09:35:19.167Z,1.34
2023-01-29T09:36:19.294Z,1.38
2023-01-29T09:37:21.023Z,1.39
2023-01-29T09:38:19.130Z,1.42
2023-01-29T09:39:19.148Z,1.46
2023-01-29T09:40:19.107Z,1.43
2023-01-29T09:41:19.135Z,1.43
2023-01-29T09:42:19.378Z,1.46
2023-01-29T09:43:19.169Z,1.40
2023-01-29T09:44:19.021Z,1.34
2023-01-29T09:45:19.280Z,1.36
2023-01-29T09:46:19.003Z,1.36
2023-01-29T09:47:19.152Z,1.34
2023-01-29T09:48:19.032Z,1.34
2023-01-29T09:49:18.933Z,1.31
2023-01-29T09:50:20.220Z,1.30
2023-01-29T09:51:19.111Z,1.28
2023-01-29T09:52:18.990Z,1.30
2023-01-29T09:53:19.138Z,1.31
2023-01-29T09:54:19.023Z,1.34
2023-01-29T09:55:19.157Z,1.21
2023-01-29T09:56:18.961Z,1.24
2023-01-29T09:57:18.866Z,1.22
2023-01-29T09:58:18.813Z,1.18
2023-01-29T09:59:18.867Z,1.21
2023-01-29T10:00:18.866Z,1.24
2023-01-29T10:01:18.922Z,1.13
2023-01-29T10:02:19.257Z,1.14
2023-01-29T10:03:18.733Z,1.16
2023-01-29T10:04:18.770Z,1.18
2023-01-29T10:05:19.070Z,1.14
2023-01-29T10:06:18.752Z,1.13
2023-01-29T10:07:18.722Z,1.13
2023-01-29T10:08:18.754Z,1.13
2023-01-29T10:09:18.803Z,1.14
2023-01-29T10:10:18.965Z,1.18
2023-01-29T10:11:18.809Z,1.18
2023-01-29T10:12:18.866Z,1.10
2023-01-29T10:13:18.813Z,1.09
2023-01-29T10:14:18.658Z,1.12
2023-01-29T10:15:19.043Z,1.13
2023-01-29T10:16:18.621Z,1.12
2023-01-29T10:17:18.743Z,1.13
2023-01-29T10:18:18.736Z,1.18
2023-01-29T10:19:18.781Z,1.21
2023-01-29T10:20:18.650Z,1.20
2023-01-29T10:21:18.819Z,1.20
2023-01-29T10:22:18.651Z,1.22
2023-01-29T10:23:18.542Z,1.22
2023-01-29T10:24:18.680Z,1.25
2023-01-29T10:25:19.284Z,1.27
2023-01-29T10:26:18.705Z,1.30
2023-01-29T10:27:18.466Z,1.30
2023-01-29T10:28:18.660Z,1.13
2023-01-29T10:29:18.507Z,1.16
2023-01-29T10:30:18.531Z,1.21
2023-01-29T10:31:18.540Z,1.24
2023-01-29T10:32:18.419Z,1.25
2023-01-29T10:33:18.397Z,1.31
2023-01-29T10:34:18.382Z,1.34
2023-01-29T10:35:18.711Z,1.30
2023-01-29T10:36:18.701Z,1.25
2023-01-29T10:37:18.491Z,1.18
2023-01-29T10:38:18.363Z,1.14
2023-01-29T10:39:18.527Z,1.20
2023-01-29T10:40:18.328Z,1.22
2023-01-29T10:41:18.353Z,1.24
2023-01-29T10:42:18.478Z,1.22
2023-01-29T10:43:18.234Z,1.22
2023-01-29T10:44:18.335Z,1.24
2023-01-29T10:45:18.656Z,1.25
2023-01-29T10:46:18.321Z,1.24
2023-01-29T10:47:18.323Z,1.24
2023-01-29T10:48:18.275Z,1.16
2023-01-29T10:49:18.216Z,1.16
2023-01-29T10:50:18.272Z,1.18
2023-01-29T10:51:18.183Z,1.14
2023-01-29T10:52:18.251Z,1.18
2023-01-29T10:53:18.172Z,1.14
2023-01-29T10:54:18.318Z,1.13
2023-01-29T10:55:18.730Z,1.18
2023-01-29T10:56:23.192Z,1.21
2023-01-29T10:57:18.204Z,1.21
2023-01-29T10:58:18.069Z,1.22
2023-01-29T10:59:18.156Z,1.13
2023-01-29T11:00:18.255Z,1.16
2023-01-29T11:01:18.125Z,1.14
2023-01-29T11:02:18.183Z,1.16
2023-01-29T11:03:27.598Z,1.20
2023-01-29T11:04:17.997Z,1.18
2023-01-29T11:05:18.449Z,1.22
2023-01-29T11:06:18.119Z,1.25
2023-01-29T11:07:17.981Z,1.30
2023-01-29T11:08:18.003Z,1.36
2023-01-29T11:09:18.205Z,1.30
2023-01-29T11:10:18.370Z,1.32
2023-01-29T11:11:17.911Z,1.31
2023-01-29T11:12:19.494Z,1.27
2023-01-29T11:13:17.884Z,1.25
2023-01-29T11:14:17.983Z,1.25
2023-01-29T11:15:17.873Z,1.25
2023-01-29T11:16:17.854Z,1.25
2023-01-29T11:17:18.369Z,1.21
2023-01-29T11:18:18.130Z,1.25
2023-01-29T11:19:17.854Z,1.28
2023-01-29T11:20:18.315Z,1.25
2023-01-29T11:21:17.857Z,1.20
2023-01-29T11:22:17.943Z,1.22
2023-01-29T11:23:17.842Z,1.28
2023-01-29T11:24:18.152Z,1.30
2023-01-29T11:25:17.859Z,1.30
2023-01-29T11:26:17.753Z,1.32
2023-01-29T11:27:17.853Z,1.32
2023-01-29T11:28:18.015Z,1.32
2023-01-29T11:29:17.852Z,1.34
2023-01-29T11:30:18.553Z,1.30
2023-01-29T11:31:17.818Z,1.34
2023-01-29T11:32:17.653Z,1.38
2023-01-29T11:33:17.687Z,1.36
2023-01-29T11:34:17.657Z,1.40
2023-01-29T11:35:17.607Z,1.38
2023-01-29T11:36:17.689Z,1.40
2023-01-29T11:37:17.838Z,1.43
2023-01-29T11:38:17.691Z,1.48
2023-01-29T11:39:17.597Z,1.46
2023-01-29T11:40:18.112Z,1.48
2023-01-29T11:41:17.537Z,1.50
2023-01-29T11:42:17.856Z,1.52
2023-01-29T11:43:17.501Z,1.53
2023-01-29T11:44:17.667Z,1.56
2023-01-29T11:45:17.542Z,1.58
2023-01-29T11:46:17.722Z,1.57
2023-01-29T11:47:17.559Z,1.56
2023-01-29T11:48:17.678Z,1.57
2023-01-29T11:49:20.895Z,1.52
2023-01-29T11:50:17.761Z,1.57
2023-01-29T11:51:17.537Z,1.57
2023-01-29T11:52:17.669Z,1.60
2023-01-29T11:53:17.499Z,1.64
2023-01-29T11:54:17.516Z,1.67
2023-01-29T11:55:17.573Z,1.70
2023-01-29T11:56:17.367Z,1.66
2023-01-29T11:57:19.365Z,1.63
2023-01-29T11:58:17.359Z,1.58
2023-01-29T11:59:17.302Z,1.63
2023-01-29T12:00:18.058Z,1.60
2023-01-29T12:01:17.301Z,1.61
2023-01-29T12:02:17.292Z,1.64
2023-01-29T12:03:17.896Z,1.67
2023-01-29T12:04:17.238Z,1.66
2023-01-29T12:05:17.231Z,1.61
2023-01-29T12:06:17.364Z,1.60
2023-01-29T12:07:17.198Z,1.56
2023-01-29T12:08:17.209Z,1.57
2023-01-29T12:09:17.221Z,1.56
2023-01-29T12:10:17.594Z,1.50
2023-01-29T12:11:17.189Z,1.50
2023-01-29T12:12:17.686Z,1.56
2023-01-29T12:13:17.197Z,1.58
2023-01-29T12:14:17.124Z,1.60
2023-01-29T12:15:17.230Z,1.56
2023-01-29T12:16:17.429Z,1.58
2023-01-29T12:17:17.061Z,1.63
2023-01-29T12:18:17.216Z,1.67
2023-01-29T12:19:17.181Z,1.67
2023-01-29T12:20:17.297Z,1.68
2023-01-29T12:21:17.052Z,1.63
2023-01-29T12:22:17.018Z,1.63
2023-01-29T12:23:17.027Z,1.68
2023-01-29T12:24:17.167Z,1.63
2023-01-29T12:25:17.000Z,1.66
2023-01-29T12:26:17.142Z,1.70
2023-01-29T12:27:17.198Z,1.75
2023-01-29T12:28:16.929Z,1.76
2023-01-29T12:29:16.922Z,1.79
2023-01-29T12:30:17.426Z,1.81
2023-01-29T12:31:16.929Z,1.78
2023-01-29T12:32:16.902Z,1.76
2023-01-29T12:33:16.854Z,1.74
2023-01-29T12:34:16.801Z,1.64
2023-01-29T12:35:16.900Z,1.57
2023-01-29T12:36:17.170Z,1.58
2023-01-29T12:37:16.853Z,1.58
2023-01-29T12:38:17.034Z,1.58
2023-01-29T12:39:16.897Z,1.60
2023-01-29T12:40:17.117Z,1.58
2023-01-29T12:41:16.872Z,1.60
2023-01-29T12:42:16.830Z,1.63
2023-01-29T12:43:16.721Z,1.75
2023-01-29T12:44:16.748Z,1.79
2023-01-29T12:45:16.885Z,1.84
2023-01-29T12:46:16.698Z,1.86
2023-01-29T12:47:17.212Z,1.85
2023-01-29T12:48:16.871Z,1.84
2023-01-29T12:49:16.895Z,1.79
2023-01-29T12:50:16.951Z,1.76
2023-01-29T12:51:16.671Z,1.78
2023-01-29T12:52:16.691Z,1.81
2023-01-29T12:53:16.882Z,1.79
2023-01-29T12:54:16.703Z,1.79
2023-01-29T12:55:16.559Z,1.85
2023-01-29T12:56:16.744Z,1.86
2023-01-29T12:57:16.576Z,1.92
2023-01-29T12:58:16.496Z,1.98
2023-01-29T12:59:16.496Z,1.98
2023-01-29T13:00:16.840Z,2.00
2023-01-29T13:01:16.550Z,2.01
2023-01-29T13:02:16.456Z,2.03
2023-01-29T13:03:16.624Z,2.00
2023-01-29T13:04:16.434Z,1.95
2023-01-29T13:05:16.424Z,1.92
2023-01-29T13:06:16.541Z,1.98
2023-01-29T13:07:16.401Z,1.97
2023-01-29T13:08:16.419Z,2.00
2023-01-29T13:09:16.604Z,2.03
2023-01-29T13:10:16.753Z,2.00
2023-01-29T13:11:16.323Z,2.00
2023-01-29T13:12:16.581Z,2.03
2023-01-29T13:13:16.315Z,2.03
2023-01-29T13:14:16.426Z,2.07
2023-01-29T13:15:16.605Z,2.12
2023-01-29T13:16:16.305Z,2.12
2023-01-29T13:17:16.336Z,2.10